METAR Data
IDs: Format: Raw Decoded Include TAF

Data at: 1420 UTC 25 Nov 2020

PGSN 251354Z 09013KT 10SM FEW032 28/26 A2987 RMK AO2 SLP137 T02780256 403170267